sensor_id;sensor_type;location;lat;lon;timestamp;P1;durP1;ratioP1;P2;durP2;ratioP2
74543;SDS011;63016;55.030;38.710;2023-06-14T00:01:38;4.32;;;1.60;;
74543;SDS011;63016;55.030;38.710;2023-06-14T00:04:04;4.32;;;2.05;;
74543;SDS011;63016;55.030;38.710;2023-06-14T00:06:31;3.35;;;1.88;;
74543;SDS011;63016;55.030;38.710;2023-06-14T00:08:56;7.15;;;1.95;;
74543;SDS011;63016;55.030;38.710;2023-06-14T00:11:22;2.92;;;1.92;;
74543;SDS011;63016;55.030;38.710;2023-06-14T00:13:47;4.70;;;2.17;;
74543;SDS011;63016;55.030;38.710;2023-06-14T00:16:13;6.90;;;2.35;;
74543;SDS011;63016;55.030;38.710;2023-06-14T00:18:38;6.07;;;1.83;;
74543;SDS011;63016;55.030;38.710;2023-06-14T00:21:04;3.15;;;1.55;;
74543;SDS011;63016;55.030;38.710;2023-06-14T00:23:31;4.00;;;1.75;;
74543;SDS011;63016;55.030;38.710;2023-06-14T00:25:56;5.13;;;2.10;;
74543;SDS011;63016;55.030;38.710;2023-06-14T00:28:22;3.45;;;1.88;;
74543;SDS011;63016;55.030;38.710;2023-06-14T00:30:47;6.10;;;1.70;;
74543;SDS011;63016;55.030;38.710;2023-06-14T00:33:13;3.95;;;1.95;;
74543;SDS011;63016;55.030;38.710;2023-06-14T00:35:38;6.32;;;1.73;;
74543;SDS011;63016;55.030;38.710;2023-06-14T00:38:04;3.15;;;1.92;;
74543;SDS011;63016;55.030;38.710;2023-06-14T00:40:30;3.22;;;1.75;;
74543;SDS011;63016;55.030;38.710;2023-06-14T00:42:55;5.05;;;2.25;;
74543;SDS011;63016;55.030;38.710;2023-06-14T00:45:21;5.10;;;2.05;;
74543;SDS011;63016;55.030;38.710;2023-06-14T00:47:46;4.38;;;2.20;;
74543;SDS011;63016;55.030;38.710;2023-06-14T00:50:13;3.47;;;1.90;;
74543;SDS011;63016;55.030;38.710;2023-06-14T00:52:39;3.85;;;2.00;;
74543;SDS011;63016;55.030;38.710;2023-06-14T00:55:05;8.90;;;2.58;;
74543;SDS011;63016;55.030;38.710;2023-06-14T00:57:31;7.38;;;2.78;;
74543;SDS011;63016;55.030;38.710;2023-06-14T00:59:57;5.30;;;2.17;;
74543;SDS011;63016;55.030;38.710;2023-06-14T01:02:23;7.85;;;2.58;;
74543;SDS011;63016;55.030;38.710;2023-06-14T01:04:49;8.02;;;2.20;;
74543;SDS011;63016;55.030;38.710;2023-06-14T01:12:52;10.27;;;2.47;;
74543;SDS011;63016;55.030;38.710;2023-06-14T01:15:30;8.32;;;2.40;;
74543;SDS011;63016;55.030;38.710;2023-06-14T01:17:56;7.65;;;2.70;;
74543;SDS011;63016;55.030;38.710;2023-06-14T01:20:28;8.68;;;2.72;;
74543;SDS011;63016;55.030;38.710;2023-06-14T01:22:57;8.75;;;2.72;;
74543;SDS011;63016;55.030;38.710;2023-06-14T01:25:23;10.93;;;3.17;;
74543;SDS011;63016;55.030;38.710;2023-06-14T01:27:50;15.45;;;2.97;;
74543;SDS011;63016;55.030;38.710;2023-06-14T01:30:27;22.85;;;2.97;;
74543;SDS011;63016;55.030;38.710;2023-06-14T01:32:56;15.63;;;3.67;;
74543;SDS011;63016;55.030;38.710;2023-06-14T01:35:22;19.83;;;4.25;;
74543;SDS011;63016;55.030;38.710;2023-06-14T01:37:48;18.30;;;4.05;;
74543;SDS011;63016;55.030;38.710;2023-06-14T01:40:14;22.30;;;4.53;;
74543;SDS011;63016;55.030;38.710;2023-06-14T01:42:41;26.42;;;4.43;;
74543;SDS011;63016;55.030;38.710;2023-06-14T01:45:08;20.25;;;3.90;;
74543;SDS011;63016;55.030;38.710;2023-06-14T01:47:35;22.02;;;4.28;;
74543;SDS011;63016;55.030;38.710;2023-06-14T01:50:02;23.23;;;4.50;;
74543;SDS011;63016;55.030;38.710;2023-06-14T01:52:28;18.00;;;4.40;;
74543;SDS011;63016;55.030;38.710;2023-06-14T01:54:54;20.95;;;4.45;;
74543;SDS011;63016;55.030;38.710;2023-06-14T01:57:19;25.75;;;4.93;;
74543;SDS011;63016;55.030;38.710;2023-06-14T01:59:45;23.02;;;5.32;;
74543;SDS011;63016;55.030;38.710;2023-06-14T02:02:13;27.13;;;6.18;;
74543;SDS011;63016;55.030;38.710;2023-06-14T02:04:40;21.35;;;6.43;;
74543;SDS011;63016;55.030;38.710;2023-06-14T02:07:06;26.23;;;6.30;;
74543;SDS011;63016;55.030;38.710;2023-06-14T02:09:31;19.38;;;4.50;;
74543;SDS011;63016;55.030;38.710;2023-06-14T02:11:57;18.50;;;3.55;;
74543;SDS011;63016;55.030;38.710;2023-06-14T02:14:22;21.98;;;3.55;;
74543;SDS011;63016;55.030;38.710;2023-06-14T02:16:49;18.55;;;4.35;;
74543;SDS011;63016;55.030;38.710;2023-06-14T02:19:15;19.90;;;3.80;;
74543;SDS011;63016;55.030;38.710;2023-06-14T02:21:42;15.52;;;3.53;;
74543;SDS011;63016;55.030;38.710;2023-06-14T02:24:07;17.98;;;3.58;;
74543;SDS011;63016;55.030;38.710;2023-06-14T02:26:33;14.90;;;4.07;;
74543;SDS011;63016;55.030;38.710;2023-06-14T02:28:59;14.93;;;4.32;;
74543;SDS011;63016;55.030;38.710;2023-06-14T02:31:25;12.40;;;3.92;;
74543;SDS011;63016;55.030;38.710;2023-06-14T02:33:50;13.05;;;3.88;;
74543;SDS011;63016;55.030;38.710;2023-06-14T02:36:16;12.13;;;4.15;;
74543;SDS011;63016;55.030;38.710;2023-06-14T02:38:41;17.30;;;4.00;;
74543;SDS011;63016;55.030;38.710;2023-06-14T02:41:07;16.23;;;4.05;;
74543;SDS011;63016;55.030;38.710;2023-06-14T02:43:32;13.52;;;3.10;;
74543;SDS011;63016;55.030;38.710;2023-06-14T02:45:58;13.77;;;3.30;;
74543;SDS011;63016;55.030;38.710;2023-06-14T02:48:24;16.73;;;3.58;;
74543;SDS011;63016;55.030;38.710;2023-06-14T02:50:49;13.65;;;3.38;;
74543;SDS011;63016;55.030;38.710;2023-06-14T02:53:16;9.77;;;3.20;;
74543;SDS011;63016;55.030;38.710;2023-06-14T02:55:42;12.48;;;3.78;;
74543;SDS011;63016;55.030;38.710;2023-06-14T02:58:07;13.00;;;3.22;;
74543;SDS011;63016;55.030;38.710;2023-06-14T03:00:33;14.02;;;3.50;;
74543;SDS011;63016;55.030;38.710;2023-06-14T03:03:00;15.82;;;3.42;;
74543;SDS011;63016;55.030;38.710;2023-06-14T03:05:26;19.60;;;3.95;;
74543;SDS011;63016;55.030;38.710;2023-06-14T03:07:53;16.33;;;3.50;;
74543;SDS011;63016;55.030;38.710;2023-06-14T03:10:19;12.30;;;3.38;;
74543;SDS011;63016;55.030;38.710;2023-06-14T03:12:44;13.43;;;3.33;;
74543;SDS011;63016;55.030;38.710;2023-06-14T03:15:10;8.15;;;3.03;;
74543;SDS011;63016;55.030;38.710;2023-06-14T03:17:38;12.65;;;2.92;;
74543;SDS011;63016;55.030;38.710;2023-06-14T03:20:03;20.50;;;3.55;;
74543;SDS011;63016;55.030;38.710;2023-06-14T03:22:30;14.27;;;2.72;;
74543;SDS011;63016;55.030;38.710;2023-06-14T03:24:58;10.90;;;3.10;;
74543;SDS011;63016;55.030;38.710;2023-06-14T03:27:24;10.48;;;3.83;;
74543;SDS011;63016;55.030;38.710;2023-06-14T03:29:50;10.50;;;3.17;;
74543;SDS011;63016;55.030;38.710;2023-06-14T03:32:16;12.43;;;2.67;;
74543;SDS011;63016;55.030;38.710;2023-06-14T03:34:42;11.50;;;2.60;;
74543;SDS011;63016;55.030;38.710;2023-06-14T03:37:07;4.22;;;2.33;;
74543;SDS011;63016;55.030;38.710;2023-06-14T03:39:33;8.95;;;2.25;;
74543;SDS011;63016;55.030;38.710;2023-06-14T03:41:58;14.43;;;3.30;;
74543;SDS011;63016;55.030;38.710;2023-06-14T03:44:26;10.40;;;2.83;;
74543;SDS011;63016;55.030;38.710;2023-06-14T03:46:51;13.65;;;4.07;;
74543;SDS011;63016;55.030;38.710;2023-06-14T03:49:17;9.45;;;4.22;;
74543;SDS011;63016;55.030;38.710;2023-06-14T03:51:42;9.30;;;5.45;;
74543;SDS011;63016;55.030;38.710;2023-06-14T03:54:08;14.15;;;7.97;;
74543;SDS011;63016;55.030;38.710;2023-06-14T03:56:33;12.82;;;7.95;;
74543;SDS011;63016;55.030;38.710;2023-06-14T03:58:59;17.13;;;9.70;;
74543;SDS011;63016;55.030;38.710;2023-06-14T04:01:25;18.15;;;9.63;;
74543;SDS011;63016;55.030;38.710;2023-06-14T04:03:54;20.05;;;10.25;;
74543;SDS011;63016;55.030;38.710;2023-06-14T04:06:22;23.10;;;11.77;;
74543;SDS011;63016;55.030;38.710;2023-06-14T04:08:50;27.73;;;15.85;;
74543;SDS011;63016;55.030;38.710;2023-06-14T04:11:16;31.17;;;17.40;;
74543;SDS011;63016;55.030;38.710;2023-06-14T04:13:42;30.02;;;18.20;;
74543;SDS011;63016;55.030;38.710;2023-06-14T04:16:08;32.50;;;18.23;;
74543;SDS011;63016;55.030;38.710;2023-06-14T04:18:33;28.10;;;15.02;;
74543;SDS011;63016;55.030;38.710;2023-06-14T04:20:58;28.00;;;13.38;;
74543;SDS011;63016;55.030;38.710;2023-06-14T04:23:24;16.30;;;9.85;;
74543;SDS011;63016;55.030;38.710;2023-06-14T04:25:49;19.35;;;9.43;;
74543;SDS011;63016;55.030;38.710;2023-06-14T04:28:15;11.38;;;7.03;;
74543;SDS011;63016;55.030;38.710;2023-06-14T04:30:42;15.02;;;5.65;;
74543;SDS011;63016;55.030;38.710;2023-06-14T04:33:09;9.57;;;4.03;;
74543;SDS011;63016;55.030;38.710;2023-06-14T04:35:35;8.23;;;3.28;;
74543;SDS011;63016;55.030;38.710;2023-06-14T04:38:02;4.97;;;2.88;;
74543;SDS011;63016;55.030;38.710;2023-06-14T04:40:34;7.22;;;3.00;;
74543;SDS011;63016;55.030;38.710;2023-06-14T04:43:07;9.77;;;2.53;;
74543;SDS011;63016;55.030;38.710;2023-06-14T04:45:42;8.57;;;2.40;;
74543;SDS011;63016;55.030;38.710;2023-06-14T04:48:10;7.28;;;2.42;;
74543;SDS011;63016;55.030;38.710;2023-06-14T04:50:37;5.28;;;2.72;;
74543;SDS011;63016;55.030;38.710;2023-06-14T04:53:02;6.63;;;2.80;;
74543;SDS011;63016;55.030;38.710;2023-06-14T04:55:28;4.85;;;2.80;;
74543;SDS011;63016;55.030;38.710;2023-06-14T04:57:53;8.38;;;2.65;;
74543;SDS011;63016;55.030;38.710;2023-06-14T05:00:19;8.55;;;2.80;;
74543;SDS011;63016;55.030;38.710;2023-06-14T05:02:45;14.30;;;2.92;;
74543;SDS011;63016;55.030;38.710;2023-06-14T05:05:12;5.65;;;2.53;;
74543;SDS011;63016;55.030;38.710;2023-06-14T05:07:37;4.88;;;2.60;;
74543;SDS011;63016;55.030;38.710;2023-06-14T05:10:03;6.03;;;2.33;;
74543;SDS011;63016;55.030;38.710;2023-06-14T05:12:30;6.25;;;2.90;;
74543;SDS011;63016;55.030;38.710;2023-06-14T05:14:55;4.60;;;2.50;;
74543;SDS011;63016;55.030;38.710;2023-06-14T05:17:23;4.78;;;2.60;;
74543;SDS011;63016;55.030;38.710;2023-06-14T05:19:49;3.13;;;2.22;;
74543;SDS011;63016;55.030;38.710;2023-06-14T05:22:15;6.25;;;1.77;;
74543;SDS011;63016;55.030;38.710;2023-06-14T05:24:41;5.43;;;2.30;;
74543;SDS011;63016;55.030;38.710;2023-06-14T05:27:07;3.60;;;2.28;;
74543;SDS011;63016;55.030;38.710;2023-06-14T05:29:33;6.85;;;2.70;;
74543;SDS011;63016;55.030;38.710;2023-06-14T05:31:58;5.30;;;2.25;;
74543;SDS011;63016;55.030;38.710;2023-06-14T05:34:24;6.13;;;2.10;;
74543;SDS011;63016;55.030;38.710;2023-06-14T05:36:49;4.55;;;2.00;;
74543;SDS011;63016;55.030;38.710;2023-06-14T05:39:15;5.65;;;1.70;;
74543;SDS011;63016;55.030;38.710;2023-06-14T05:41:41;7.05;;;2.35;;
74543;SDS011;63016;55.030;38.710;2023-06-14T05:44:06;7.95;;;2.10;;
74543;SDS011;63016;55.030;38.710;2023-06-14T05:46:32;6.45;;;2.25;;
74543;SDS011;63016;55.030;38.710;2023-06-14T05:48:58;3.97;;;2.30;;
74543;SDS011;63016;55.030;38.710;2023-06-14T05:51:24;7.72;;;2.20;;
74543;SDS011;63016;55.030;38.710;2023-06-14T05:53:50;5.15;;;1.63;;
74543;SDS011;63016;55.030;38.710;2023-06-14T05:56:16;3.20;;;1.60;;
74543;SDS011;63016;55.030;38.710;2023-06-14T05:58:43;7.95;;;2.17;;
74543;SDS011;63016;55.030;38.710;2023-06-14T06:01:09;4.10;;;1.60;;
74543;SDS011;63016;55.030;38.710;2023-06-14T06:03:34;7.72;;;1.73;;
74543;SDS011;63016;55.030;38.710;2023-06-14T06:06:00;5.82;;;1.73;;
74543;SDS011;63016;55.030;38.710;2023-06-14T06:08:26;7.57;;;2.25;;
74543;SDS011;63016;55.030;38.710;2023-06-14T06:10:52;2.03;;;1.50;;
74543;SDS011;63016;55.030;38.710;2023-06-14T06:13:17;3.35;;;1.33;;
74543;SDS011;63016;55.030;38.710;2023-06-14T06:15:43;5.50;;;1.42;;
74543;SDS011;63016;55.030;38.710;2023-06-14T06:18:08;3.42;;;1.20;;
74543;SDS011;63016;55.030;38.710;2023-06-14T06:20:34;3.67;;;1.17;;
74543;SDS011;63016;55.030;38.710;2023-06-14T06:23:01;3.70;;;1.20;;
74543;SDS011;63016;55.030;38.710;2023-06-14T06:25:26;2.67;;;1.40;;
74543;SDS011;63016;55.030;38.710;2023-06-14T06:27:53;4.10;;;1.45;;
74543;SDS011;63016;55.030;38.710;2023-06-14T06:30:19;5.57;;;1.20;;
74543;SDS011;63016;55.030;38.710;2023-06-14T06:32:45;3.53;;;1.20;;
74543;SDS011;63016;55.030;38.710;2023-06-14T06:35:11;3.45;;;1.20;;
74543;SDS011;63016;55.030;38.710;2023-06-14T06:37:38;1.70;;;1.10;;
74543;SDS011;63016;55.030;38.710;2023-06-14T06:40:04;8.18;;;1.25;;
74543;SDS011;63016;55.030;38.710;2023-06-14T06:42:31;2.50;;;1.30;;
74543;SDS011;63016;55.030;38.710;2023-06-14T06:44:57;2.90;;;1.58;;
74543;SDS011;63016;55.030;38.710;2023-06-14T06:47:22;2.90;;;1.20;;
74543;SDS011;63016;55.030;38.710;2023-06-14T06:49:47;5.05;;;1.20;;
74543;SDS011;63016;55.030;38.710;2023-06-14T06:52:13;1.77;;;1.00;;
74543;SDS011;63016;55.030;38.710;2023-06-14T06:54:39;3.42;;;1.10;;
74543;SDS011;63016;55.030;38.710;2023-06-14T06:57:05;3.42;;;1.20;;
74543;SDS011;63016;55.030;38.710;2023-06-14T06:59:31;5.07;;;1.23;;
74543;SDS011;63016;55.030;38.710;2023-06-14T07:01:57;2.88;;;1.10;;
74543;SDS011;63016;55.030;38.710;2023-06-14T07:04:22;2.08;;;1.20;;
74543;SDS011;63016;55.030;38.710;2023-06-14T07:06:48;2.00;;;1.10;;
74543;SDS011;63016;55.030;38.710;2023-06-14T07:09:14;2.78;;;0.90;;
74543;SDS011;63016;55.030;38.710;2023-06-14T07:11:44;3.17;;;1.25;;
74543;SDS011;63016;55.030;38.710;2023-06-14T07:14:10;3.97;;;1.30;;
74543;SDS011;63016;55.030;38.710;2023-06-14T07:16:36;1.63;;;1.13;;
74543;SDS011;63016;55.030;38.710;2023-06-14T07:19:02;12.13;;;1.42;;
74543;SDS011;63016;55.030;38.710;2023-06-14T07:21:27;12.50;;;1.35;;
74543;SDS011;63016;55.030;38.710;2023-06-14T07:23:53;5.32;;;1.25;;
74543;SDS011;63016;55.030;38.710;2023-06-14T07:26:19;2.88;;;1.08;;
74543;SDS011;63016;55.030;38.710;2023-06-14T07:28:46;3.28;;;1.27;;
74543;SDS011;63016;55.030;38.710;2023-06-14T07:31:15;4.65;;;1.20;;
74543;SDS011;63016;55.030;38.710;2023-06-14T07:33:41;1.77;;;1.08;;
74543;SDS011;63016;55.030;38.710;2023-06-14T07:36:07;1.80;;;1.35;;
74543;SDS011;63016;55.030;38.710;2023-06-14T07:38:33;4.20;;;1.15;;
74543;SDS011;63016;55.030;38.710;2023-06-14T07:40:59;2.35;;;1.15;;
74543;SDS011;63016;55.030;38.710;2023-06-14T07:43:25;3.63;;;1.40;;
74543;SDS011;63016;55.030;38.710;2023-06-14T07:45:50;3.38;;;1.40;;
74543;SDS011;63016;55.030;38.710;2023-06-14T07:48:16;2.28;;;1.00;;
74543;SDS011;63016;55.030;38.710;2023-06-14T07:50:41;5.20;;;1.30;;
74543;SDS011;63016;55.030;38.710;2023-06-14T07:53:07;2.85;;;1.08;;
74543;SDS011;63016;55.030;38.710;2023-06-14T07:55:33;5.78;;;1.33;;
74543;SDS011;63016;55.030;38.710;2023-06-14T07:58:01;4.13;;;1.30;;
74543;SDS011;63016;55.030;38.710;2023-06-14T08:00:31;3.47;;;1.23;;
74543;SDS011;63016;55.030;38.710;2023-06-14T08:02:57;18.13;;;1.67;;
74543;SDS011;63016;55.030;38.710;2023-06-14T08:05:24;6.18;;;1.23;;
74543;SDS011;63016;55.030;38.710;2023-06-14T08:07:51;2.80;;;1.10;;
74543;SDS011;63016;55.030;38.710;2023-06-14T08:10:16;1.45;;;1.20;;
74543;SDS011;63016;55.030;38.710;2023-06-14T08:12:42;2.08;;;1.10;;
74543;SDS011;63016;55.030;38.710;2023-06-14T08:15:07;2.95;;;1.40;;
74543;SDS011;63016;55.030;38.710;2023-06-14T08:17:34;5.65;;;1.45;;
74543;SDS011;63016;55.030;38.710;2023-06-14T08:19:59;8.15;;;1.33;;
74543;SDS011;63016;55.030;38.710;2023-06-14T08:22:25;3.50;;;1.30;;
74543;SDS011;63016;55.030;38.710;2023-06-14T08:24:53;3.22;;;1.25;;
74543;SDS011;63016;55.030;38.710;2023-06-14T08:27:19;2.83;;;1.15;;
74543;SDS011;63016;55.030;38.710;2023-06-14T08:29:45;3.80;;;1.30;;
74543;SDS011;63016;55.030;38.710;2023-06-14T08:32:11;7.63;;;1.50;;
74543;SDS011;63016;55.030;38.710;2023-06-14T08:34:37;3.92;;;1.48;;
74543;SDS011;63016;55.030;38.710;2023-06-14T08:37:02;2.95;;;1.38;;
74543;SDS011;63016;55.030;38.710;2023-06-14T08:39:28;2.67;;;1.70;;
74543;SDS011;63016;55.030;38.710;2023-06-14T08:41:54;4.85;;;1.20;;
74543;SDS011;63016;55.030;38.710;2023-06-14T08:44:21;3.67;;;1.20;;
74543;SDS011;63016;55.030;38.710;2023-06-14T08:46:47;3.22;;;1.33;;
74543;SDS011;63016;55.030;38.710;2023-06-14T08:49:13;2.92;;;1.50;;
74543;SDS011;63016;55.030;38.710;2023-06-14T08:51:42;3.25;;;1.38;;
74543;SDS011;63016;55.030;38.710;2023-06-14T08:54:09;3.95;;;1.67;;
74543;SDS011;63016;55.030;38.710;2023-06-14T08:56:39;3.55;;;1.40;;
74543;SDS011;63016;55.030;38.710;2023-06-14T08:59:06;3.97;;;1.50;;
74543;SDS011;63016;55.030;38.710;2023-06-14T09:01:34;3.38;;;1.38;;
74543;SDS011;63016;55.030;38.710;2023-06-14T09:04:01;3.08;;;1.30;;
74543;SDS011;63016;55.030;38.710;2023-06-14T09:06:28;5.15;;;1.48;;
74543;SDS011;63016;55.030;38.710;2023-06-14T09:08:54;3.45;;;1.40;;
74543;SDS011;63016;55.030;38.710;2023-06-14T09:11:22;4.65;;;1.60;;
74543;SDS011;63016;55.030;38.710;2023-06-14T09:13:48;5.45;;;1.60;;
74543;SDS011;63016;55.030;38.710;2023-06-14T09:16:15;1.92;;;1.40;;
74543;SDS011;63016;55.030;38.710;2023-06-14T09:18:44;2.20;;;1.40;;
74543;SDS011;63016;55.030;38.710;2023-06-14T09:21:13;4.20;;;1.35;;
74543;SDS011;63016;55.030;38.710;2023-06-14T09:23:40;5.40;;;1.48;;
74543;SDS011;63016;55.030;38.710;2023-06-14T09:28:48;2.67;;;1.13;;
74543;SDS011;63016;55.030;38.710;2023-06-14T09:31:18;2.70;;;1.40;;
74543;SDS011;63016;55.030;38.710;2023-06-14T09:33:45;5.72;;;1.60;;
74543;SDS011;63016;55.030;38.710;2023-06-14T09:36:15;5.65;;;1.60;;
74543;SDS011;63016;55.030;38.710;2023-06-14T09:38:57;4.15;;;1.50;;
74543;SDS011;63016;55.030;38.710;2023-06-14T09:44:03;2.83;;;1.30;;
74543;SDS011;63016;55.030;38.710;2023-06-14T09:46:31;2.78;;;1.48;;
74543;SDS011;63016;55.030;38.710;2023-06-14T09:48:57;4.32;;;1.40;;
74543;SDS011;63016;55.030;38.710;2023-06-14T09:51:23;5.07;;;1.30;;
74543;SDS011;63016;55.030;38.710;2023-06-14T09:53:49;2.83;;;1.20;;
74543;SDS011;63016;55.030;38.710;2023-06-14T09:56:16;4.70;;;1.50;;
74543;SDS011;63016;55.030;38.710;2023-06-14T09:58:48;3.00;;;1.20;;
74543;SDS011;63016;55.030;38.710;2023-06-14T10:01:19;3.55;;;1.30;;
74543;SDS011;63016;55.030;38.710;2023-06-14T10:03:45;3.50;;;1.13;;
74543;SDS011;63016;55.030;38.710;2023-06-14T10:06:12;4.47;;;1.40;;
74543;SDS011;63016;55.030;38.710;2023-06-14T10:08:38;3.28;;;1.50;;
74543;SDS011;63016;55.030;38.710;2023-06-14T10:11:05;2.95;;;1.17;;
74543;SDS011;63016;55.030;38.710;2023-06-14T10:13:32;3.85;;;1.50;;
74543;SDS011;63016;55.030;38.710;2023-06-14T10:16:15;2.47;;;1.35;;
74543;SDS011;63016;55.030;38.710;2023-06-14T10:18:53;3.60;;;1.25;;
74543;SDS011;63016;55.030;38.710;2023-06-14T10:24:18;4.95;;;1.50;;
74543;SDS011;63016;55.030;38.710;2023-06-14T10:26:54;3.63;;;1.40;;
74543;SDS011;63016;55.030;38.710;2023-06-14T10:29:22;2.28;;;1.20;;
74543;SDS011;63016;55.030;38.710;2023-06-14T10:31:48;1.73;;;1.23;;
74543;SDS011;63016;55.030;38.710;2023-06-14T10:34:51;6.82;;;1.60;;
74543;SDS011;63016;55.030;38.710;2023-06-14T10:37:07;3.80;;;1.15;;
74543;SDS011;63016;55.030;38.710;2023-06-14T10:39:40;4.30;;;1.33;;
74543;SDS011;63016;55.030;38.710;2023-06-14T10:42:07;3.50;;;1.45;;
74543;SDS011;63016;55.030;38.710;2023-06-14T10:44:33;4.65;;;1.95;;
74543;SDS011;63016;55.030;38.710;2023-06-14T10:47:00;3.25;;;1.40;;
74543;SDS011;63016;55.030;38.710;2023-06-14T10:52:13;3.47;;;1.38;;
74543;SDS011;63016;55.030;38.710;2023-06-14T10:54:59;6.15;;;1.20;;
74543;SDS011;63016;55.030;38.710;2023-06-14T11:00:23;2.50;;;1.27;;
74543;SDS011;63016;55.030;38.710;2023-06-14T11:05:51;2.08;;;1.50;;
74543;SDS011;63016;55.030;38.710;2023-06-14T11:10:54;3.08;;;1.38;;
74543;SDS011;63016;55.030;38.710;2023-06-14T11:13:21;3.47;;;1.25;;
74543;SDS011;63016;55.030;38.710;2023-06-14T11:15:50;2.42;;;1.15;;
74543;SDS011;63016;55.030;38.710;2023-06-14T11:18:18;3.85;;;1.30;;
74543;SDS011;63016;55.030;38.710;2023-06-14T11:20:45;2.35;;;1.25;;
74543;SDS011;63016;55.030;38.710;2023-06-14T11:23:11;2.30;;;1.27;;
74543;SDS011;63016;55.030;38.710;2023-06-14T11:25:36;3.47;;;1.27;;
74543;SDS011;63016;55.030;38.710;2023-06-14T11:28:02;4.05;;;1.20;;
74543;SDS011;63016;55.030;38.710;2023-06-14T11:30:27;2.00;;;1.50;;
74543;SDS011;63016;55.030;38.710;2023-06-14T11:32:53;3.80;;;1.60;;
74543;SDS011;63016;55.030;38.710;2023-06-14T11:35:23;3.95;;;1.20;;
74543;SDS011;63016;55.030;38.710;2023-06-14T11:37:53;1.80;;;1.30;;
74543;SDS011;63016;55.030;38.710;2023-06-14T11:40:22;4.15;;;1.58;;
74543;SDS011;63016;55.030;38.710;2023-06-14T11:42:49;2.22;;;1.30;;
74543;SDS011;63016;55.030;38.710;2023-06-14T11:45:15;3.67;;;1.23;;
74543;SDS011;63016;55.030;38.710;2023-06-14T11:47:40;6.07;;;1.42;;
74543;SDS011;63016;55.030;38.710;2023-06-14T11:50:07;3.40;;;1.38;;
74543;SDS011;63016;55.030;38.710;2023-06-14T11:52:33;2.00;;;1.50;;
74543;SDS011;63016;55.030;38.710;2023-06-14T11:54:59;1.83;;;1.10;;
74543;SDS011;63016;55.030;38.710;2023-06-14T11:57:26;3.42;;;1.52;;
74543;SDS011;63016;55.030;38.710;2023-06-14T11:59:51;2.92;;;1.60;;
74543;SDS011;63016;55.030;38.710;2023-06-14T12:02:21;4.85;;;1.50;;
74543;SDS011;63016;55.030;38.710;2023-06-14T12:04:47;3.45;;;1.20;;
74543;SDS011;63016;55.030;38.710;2023-06-14T12:07:14;4.70;;;1.38;;
74543;SDS011;63016;55.030;38.710;2023-06-14T12:09:42;2.13;;;1.20;;
74543;SDS011;63016;55.030;38.710;2023-06-14T12:12:34;5.38;;;1.52;;
74543;SDS011;63016;55.030;38.710;2023-06-14T12:15:02;2.60;;;1.40;;
74543;SDS011;63016;55.030;38.710;2023-06-14T12:17:31;2.40;;;1.40;;
74543;SDS011;63016;55.030;38.710;2023-06-14T12:20:08;2.17;;;1.20;;
74543;SDS011;63016;55.030;38.710;2023-06-14T12:22:36;2.53;;;1.40;;
74543;SDS011;63016;55.030;38.710;2023-06-14T12:25:02;3.63;;;1.40;;
74543;SDS011;63016;55.030;38.710;2023-06-14T12:27:28;2.42;;;1.20;;
74543;SDS011;63016;55.030;38.710;2023-06-14T12:30:00;4.25;;;1.60;;
74543;SDS011;63016;55.030;38.710;2023-06-14T12:32:27;7.32;;;1.50;;
74543;SDS011;63016;55.030;38.710;2023-06-14T12:34:53;3.08;;;1.10;;
74543;SDS011;63016;55.030;38.710;2023-06-14T12:37:19;1.98;;;1.63;;
74543;SDS011;63016;55.030;38.710;2023-06-14T12:39:44;1.45;;;1.15;;
74543;SDS011;63016;55.030;38.710;2023-06-14T12:42:10;1.90;;;1.30;;
74543;SDS011;63016;55.030;38.710;2023-06-14T12:44:36;3.92;;;1.20;;
74543;SDS011;63016;55.030;38.710;2023-06-14T12:47:05;5.85;;;1.92;;
74543;SDS011;63016;55.030;38.710;2023-06-14T12:49:32;2.65;;;1.33;;
74543;SDS011;63016;55.030;38.710;2023-06-14T12:51:58;2.55;;;1.35;;
74543;SDS011;63016;55.030;38.710;2023-06-14T12:54:23;4.78;;;1.25;;
74543;SDS011;63016;55.030;38.710;2023-06-14T12:56:50;2.58;;;1.20;;
74543;SDS011;63016;55.030;38.710;2023-06-14T12:59:17;4.65;;;1.75;;
74543;SDS011;63016;55.030;38.710;2023-06-14T13:01:43;2.85;;;1.40;;
74543;SDS011;63016;55.030;38.710;2023-06-14T13:04:09;2.10;;;1.20;;
74543;SDS011;63016;55.030;38.710;2023-06-14T13:06:35;2.88;;;1.33;;
74543;SDS011;63016;55.030;38.710;2023-06-14T13:09:01;5.45;;;1.52;;
74543;SDS011;63016;55.030;38.710;2023-06-14T13:11:28;1.58;;;1.15;;
74543;SDS011;63016;55.030;38.710;2023-06-14T13:13:54;1.60;;;1.23;;
74543;SDS011;63016;55.030;38.710;2023-06-14T13:16:20;3.08;;;1.40;;
74543;SDS011;63016;55.030;38.710;2023-06-14T13:18:45;3.95;;;1.50;;
74543;SDS011;63016;55.030;38.710;2023-06-14T13:21:11;2.00;;;1.30;;
74543;SDS011;63016;55.030;38.710;2023-06-14T13:23:36;4.82;;;1.60;;
74543;SDS011;63016;55.030;38.710;2023-06-14T13:26:02;3.13;;;1.42;;
74543;SDS011;63016;55.030;38.710;2023-06-14T13:28:27;3.38;;;1.20;;
74543;SDS011;63016;55.030;38.710;2023-06-14T13:30:53;4.25;;;1.73;;
74543;SDS011;63016;55.030;38.710;2023-06-14T13:33:20;5.60;;;1.45;;
74543;SDS011;63016;55.030;38.710;2023-06-14T13:35:46;2.47;;;1.63;;
74543;SDS011;63016;55.030;38.710;2023-06-14T13:38:13;7.05;;;1.63;;
74543;SDS011;63016;55.030;38.710;2023-06-14T13:40:40;2.65;;;1.33;;
74543;SDS011;63016;55.030;38.710;2023-06-14T13:43:05;2.80;;;1.45;;
74543;SDS011;63016;55.030;38.710;2023-06-14T13:45:30;2.28;;;1.52;;
74543;SDS011;63016;55.030;38.710;2023-06-14T13:47:56;1.85;;;1.50;;
74543;SDS011;63016;55.030;38.710;2023-06-14T13:50:21;5.22;;;1.60;;
74543;SDS011;63016;55.030;38.710;2023-06-14T13:52:47;3.90;;;1.60;;
74543;SDS011;63016;55.030;38.710;2023-06-14T13:55:12;2.72;;;1.30;;
74543;SDS011;63016;55.030;38.710;2023-06-14T13:57:38;1.65;;;1.30;;
74543;SDS011;63016;55.030;38.710;2023-06-14T14:00:04;4.63;;;1.52;;
74543;SDS011;63016;55.030;38.710;2023-06-14T14:02:30;2.55;;;1.40;;
74543;SDS011;63016;55.030;38.710;2023-06-14T14:04:56;4.80;;;1.17;;
74543;SDS011;63016;55.030;38.710;2023-06-14T14:07:22;2.95;;;1.60;;
74543;SDS011;63016;55.030;38.710;2023-06-14T14:09:48;4.00;;;1.60;;
74543;SDS011;63016;55.030;38.710;2023-06-14T14:12:14;2.88;;;1.48;;
74543;SDS011;63016;55.030;38.710;2023-06-14T14:14:40;3.33;;;1.70;;
74543;SDS011;63016;55.030;38.710;2023-06-14T14:17:07;3.25;;;1.40;;
74543;SDS011;63016;55.030;38.710;2023-06-14T14:19:32;2.88;;;1.30;;
74543;SDS011;63016;55.030;38.710;2023-06-14T14:21:58;2.35;;;1.50;;
74543;SDS011;63016;55.030;38.710;2023-06-14T14:24:23;3.08;;;1.20;;
74543;SDS011;63016;55.030;38.710;2023-06-14T14:26:51;2.70;;;1.35;;
74543;SDS011;63016;55.030;38.710;2023-06-14T14:29:18;2.92;;;1.27;;
74543;SDS011;63016;55.030;38.710;2023-06-14T14:31:44;5.30;;;1.50;;
74543;SDS011;63016;55.030;38.710;2023-06-14T14:34:10;1.80;;;1.33;;
74543;SDS011;63016;55.030;38.710;2023-06-14T14:36:35;4.80;;;1.30;;
74543;SDS011;63016;55.030;38.710;2023-06-14T14:39:03;2.63;;;1.60;;
74543;SDS011;63016;55.030;38.710;2023-06-14T14:41:29;2.05;;;1.50;;
74543;SDS011;63016;55.030;38.710;2023-06-14T14:43:54;2.00;;;1.42;;
74543;SDS011;63016;55.030;38.710;2023-06-14T14:46:20;2.55;;;1.50;;
74543;SDS011;63016;55.030;38.710;2023-06-14T14:48:45;2.22;;;1.40;;
74543;SDS011;63016;55.030;38.710;2023-06-14T14:51:11;3.22;;;1.60;;
74543;SDS011;63016;55.030;38.710;2023-06-14T14:53:36;3.53;;;1.50;;